createdAt,value
2022-12-08T00:01:32.811Z,50.46
2022-12-08T00:03:59.182Z,50.17
2022-12-08T00:06:25.496Z,50.64
2022-12-08T00:08:51.807Z,50.03
2022-12-08T00:11:18.182Z,50.09
2022-12-08T00:13:44.502Z,50.46
2022-12-08T00:16:10.873Z,50.05
2022-12-08T00:18:37.198Z,50.10
2022-12-08T00:21:03.514Z,49.77
2022-12-08T00:23:29.857Z,49.92
2022-12-08T00:25:56.192Z,49.63
2022-12-08T00:28:22.560Z,50.28
2022-12-08T00:30:48.899Z,49.83
2022-12-08T00:33:15.212Z,49.84
2022-12-08T00:35:43.225Z,50.31
2022-12-08T00:38:09.827Z,49.93
2022-12-08T00:40:36.181Z,49.72
2022-12-08T00:43:02.500Z,50.05
2022-12-08T00:45:28.878Z,49.86
2022-12-08T00:47:55.249Z,49.89
2022-12-08T00:50:21.568Z,49.85
2022-12-08T00:52:47.871Z,49.61
2022-12-08T00:55:14.149Z,49.37
2022-12-08T00:57:40.511Z,50.06
2022-12-08T01:00:07.009Z,49.87
2022-12-08T01:02:33.486Z,50.28
2022-12-08T01:04:59.825Z,50.01
2022-12-08T01:07:28.924Z,49.83
2022-12-08T01:09:58.061Z,49.78
2022-12-08T01:12:24.354Z,49.54
2022-12-08T01:14:55.846Z,50.16
2022-12-08T01:17:27.109Z,49.75
2022-12-08T01:19:56.205Z,49.49
2022-12-08T01:22:25.318Z,50.05
2022-12-08T01:24:54.406Z,49.81
2022-12-08T01:27:23.529Z,49.81
2022-12-08T01:29:49.848Z,49.80
2022-12-08T01:32:18.958Z,49.71
2022-12-08T01:34:48.057Z,49.86
2022-12-08T01:37:14.418Z,49.90
2022-12-08T01:39:40.700Z,49.58
2022-12-08T01:42:06.993Z,49.98
2022-12-08T01:44:36.116Z,49.67
2022-12-08T01:47:05.230Z,49.57
2022-12-08T01:49:31.573Z,49.74
2022-12-08T01:52:00.666Z,49.75
2022-12-08T01:54:29.763Z,50.14
2022-12-08T01:56:56.072Z,49.68
2022-12-08T01:59:25.175Z,49.64
2022-12-08T02:01:51.512Z,49.87
2022-12-08T02:04:17.909Z,49.46
2022-12-08T02:06:44.209Z,49.71
2022-12-08T02:09:13.295Z,49.83
2022-12-08T02:11:42.430Z,49.62
2022-12-08T02:14:11.524Z,51.24
2022-12-08T02:16:40.621Z,49.86
2022-12-08T02:19:30.221Z,49.43
2022-12-08T02:21:53.191Z,49.53
2022-12-08T02:24:22.314Z,49.81
2022-12-08T02:26:51.368Z,49.53
2022-12-08T02:29:17.662Z,49.89
2022-12-08T02:31:46.746Z,49.61
2022-12-08T02:34:13.028Z,49.52
2022-12-08T02:36:42.135Z,49.58
2022-12-08T02:39:08.424Z,49.61
2022-12-08T02:41:34.708Z,49.85
2022-12-08T02:44:03.829Z,49.31
2022-12-08T02:46:30.184Z,49.66
2022-12-08T02:48:59.326Z,49.86
2022-12-08T02:51:25.602Z,49.33
2022-12-08T02:53:54.692Z,49.89
2022-12-08T02:56:23.791Z,49.63
2022-12-08T02:58:52.934Z,49.29
2022-12-08T03:01:19.276Z,49.39
2022-12-08T03:03:48.469Z,49.52
2022-12-08T03:06:17.597Z,49.65
2022-12-08T03:08:43.872Z,49.77
2022-12-08T03:11:10.172Z,49.31
2022-12-08T03:13:39.268Z,49.74
2022-12-08T03:16:05.611Z,49.67
2022-12-08T03:18:34.737Z,50.14
2022-12-08T03:21:03.851Z,49.79
2022-12-08T03:23:32.957Z,49.33
2022-12-08T03:26:02.077Z,49.40
2022-12-08T03:28:31.181Z,49.70
2022-12-08T03:30:57.835Z,49.27
2022-12-08T03:33:24.241Z,49.71
2022-12-08T03:35:53.357Z,49.68
2022-12-08T03:38:22.449Z,49.57
2022-12-08T03:40:51.546Z,49.74
2022-12-08T03:43:17.858Z,49.24
2022-12-08T03:45:44.179Z,49.60
2022-12-08T03:48:10.486Z,48.87
2022-12-08T03:50:36.797Z,49.72
2022-12-08T03:53:05.912Z,49.78
2022-12-08T03:55:32.257Z,49.35
2022-12-08T03:58:01.354Z,49.54
2022-12-08T04:00:27.694Z,49.41
2022-12-08T04:02:56.858Z,49.26
2022-12-08T04:05:25.978Z,49.23
2022-12-08T04:07:52.313Z,49.36
2022-12-08T04:10:18.627Z,49.48
2022-12-08T04:12:44.954Z,49.28
2022-12-08T04:15:11.253Z,49.19
2022-12-08T04:17:37.534Z,49.28
2022-12-08T04:20:04.211Z,49.12
2022-12-08T04:22:30.737Z,49.47
2022-12-08T04:25:00.127Z,49.55
2022-12-08T04:27:26.411Z,49.16
2022-12-08T04:29:55.512Z,49.32
2022-12-08T04:32:24.648Z,49.01
2022-12-08T04:34:53.746Z,49.32
2022-12-08T04:37:20.057Z,49.11
2022-12-08T04:39:49.180Z,49.60
2022-12-08T04:42:15.471Z,49.29
2022-12-08T04:44:44.629Z,49.23
2022-12-08T04:47:10.992Z,49.68
2022-12-08T04:49:40.127Z,49.32
2022-12-08T04:52:06.488Z,49.50
2022-12-08T04:54:35.583Z,49.29
2022-12-08T04:57:04.681Z,49.12
2022-12-08T04:59:30.993Z,49.41
2022-12-08T05:02:00.204Z,49.41
2022-12-08T05:04:29.410Z,49.24
2022-12-08T05:06:58.494Z,49.60
2022-12-08T05:09:24.791Z,49.16
2022-12-08T05:11:51.114Z,49.34
2022-12-08T05:14:17.428Z,48.60
2022-12-08T05:16:43.792Z,48.66
2022-12-08T05:19:10.329Z,49.49
2022-12-08T05:21:36.698Z,48.86
2022-12-08T05:24:02.989Z,48.56
2022-12-08T05:26:29.279Z,48.61
2022-12-08T05:28:58.394Z,48.96
2022-12-08T05:31:24.772Z,49.12
2022-12-08T05:33:51.130Z,48.86
2022-12-08T05:36:17.443Z,49.52
2022-12-08T05:38:43.739Z,49.32
2022-12-08T05:41:10.033Z,48.70
2022-12-08T05:43:39.184Z,49.25
2022-12-08T05:46:05.589Z,48.83
2022-12-08T05:48:31.962Z,49.26
2022-12-08T05:50:58.338Z,48.35
2022-12-08T05:53:24.636Z,49.00
2022-12-08T05:55:50.962Z,48.74
2022-12-08T05:58:17.368Z,49.17
2022-12-08T06:00:43.676Z,48.64
2022-12-08T06:03:09.995Z,48.87
2022-12-08T06:05:36.365Z,48.75
2022-12-08T06:08:02.736Z,49.08
2022-12-08T06:10:29.188Z,49.11
2022-12-08T06:12:55.510Z,48.88
2022-12-08T06:15:21.852Z,49.10
2022-12-08T06:17:51.018Z,48.83
2022-12-08T06:20:17.323Z,49.05
2022-12-08T06:22:43.657Z,49.19
2022-12-08T06:25:10.406Z,49.46
2022-12-08T06:27:36.798Z,48.80
2022-12-08T06:30:06.239Z,49.28
2022-12-08T06:32:32.840Z,49.13
2022-12-08T06:34:59.189Z,49.76
2022-12-08T06:37:25.513Z,49.20
2022-12-08T06:39:51.822Z,48.71
2022-12-08T06:42:18.159Z,48.50
2022-12-08T06:44:44.491Z,48.28
2022-12-08T06:47:10.887Z,48.93
2022-12-08T06:49:37.202Z,48.30
2022-12-08T06:52:03.537Z,48.87
2022-12-08T06:54:30.954Z,48.37
2022-12-08T06:56:58.359Z,48.53
2022-12-08T06:59:24.876Z,48.64
2022-12-08T07:01:52.242Z,48.29
2022-12-08T07:04:19.633Z,48.47
2022-12-08T07:06:46.171Z,48.50
2022-12-08T07:09:12.604Z,49.00
2022-12-08T07:11:39.367Z,48.54
2022-12-08T07:14:06.929Z,48.74
2022-12-08T07:16:34.735Z,48.50
2022-12-08T07:19:02.187Z,48.41
2022-12-08T07:21:28.947Z,48.92
2022-12-08T07:23:58.036Z,46.98
2022-12-08T07:26:27.615Z,45.86
2022-12-08T07:28:54.910Z,45.96
2022-12-08T07:31:21.565Z,45.64
2022-12-08T07:33:48.927Z,44.78
2022-12-08T07:36:17.226Z,44.59
2022-12-08T07:38:43.676Z,44.24
2022-12-08T07:41:10.146Z,44.03
2022-12-08T07:43:36.617Z,44.05
2022-12-08T07:46:03.220Z,43.95
2022-12-08T07:48:29.747Z,43.97
2022-12-08T07:50:57.050Z,43.91
2022-12-08T07:53:24.293Z,43.63
2022-12-08T07:55:51.596Z,43.52
2022-12-08T07:58:19.024Z,43.77
2022-12-08T08:00:45.568Z,43.54
2022-12-08T08:03:14.026Z,43.72
2022-12-08T08:05:41.340Z,43.46
2022-12-08T08:08:08.618Z,43.57
2022-12-08T08:10:35.091Z,43.04
2022-12-08T08:13:04.361Z,43.52
2022-12-08T08:15:32.787Z,43.33
2022-12-08T08:18:01.258Z,43.97
2022-12-08T08:20:27.755Z,44.05
2022-12-08T08:22:54.241Z,44.16
2022-12-08T08:25:20.707Z,43.56
2022-12-08T08:27:48.092Z,44.21
2022-12-08T08:30:20.272Z,44.17
2022-12-08T08:32:47.325Z,43.93
2022-12-08T08:35:14.705Z,43.31
2022-12-08T08:37:44.323Z,44.43
2022-12-08T08:40:14.927Z,43.96
2022-12-08T08:42:41.437Z,44.45
2022-12-08T08:45:07.918Z,44.80
2022-12-08T08:47:34.397Z,45.22
2022-12-08T08:50:00.930Z,45.23
2022-12-08T08:52:28.236Z,45.88
2022-12-08T08:54:54.652Z,45.91
2022-12-08T08:57:25.517Z,46.65
2022-12-08T08:59:52.579Z,47.08
2022-12-08T09:02:19.152Z,47.04
2022-12-08T09:04:46.641Z,47.21
2022-12-08T09:07:13.903Z,47.00
2022-12-08T09:09:40.328Z,47.28
2022-12-08T09:12:06.869Z,47.54
2022-12-08T09:14:34.125Z,47.56
2022-12-08T09:17:00.593Z,47.72
2022-12-08T09:19:27.081Z,47.79
2022-12-08T09:21:55.394Z,47.68
2022-12-08T09:24:22.758Z,47.75
2022-12-08T09:26:50.165Z,47.40
2022-12-08T09:29:16.656Z,47.53
2022-12-08T09:31:43.186Z,47.09
2022-12-08T09:34:09.842Z,47.57
2022-12-08T09:36:36.299Z,47.09
2022-12-08T09:39:02.751Z,47.35
2022-12-08T09:41:34.012Z,47.63
2022-12-08T09:44:04.251Z,47.15
2022-12-08T09:46:31.754Z,47.13
2022-12-08T09:48:58.286Z,47.37
2022-12-08T09:51:24.753Z,47.59
2022-12-08T09:53:51.377Z,47.89
2022-12-08T09:56:17.982Z,47.27
2022-12-08T09:58:44.496Z,47.59
2022-12-08T10:01:10.931Z,47.21
2022-12-08T10:03:37.776Z,47.55
2022-12-08T10:06:05.144Z,47.31
2022-12-08T10:08:32.582Z,47.30
2022-12-08T10:10:59.064Z,47.62
2022-12-08T10:13:25.498Z,47.83
2022-12-08T10:15:52.884Z,48.27
2022-12-08T10:18:20.192Z,49.13
2022-12-08T10:20:47.436Z,48.75
2022-12-08T10:23:15.724Z,48.96
2022-12-08T10:25:42.140Z,48.79
2022-12-08T10:28:08.592Z,48.66
2022-12-08T10:30:35.010Z,49.12
2022-12-08T10:33:01.511Z,48.71
2022-12-08T10:35:28.754Z,49.23
2022-12-08T10:37:55.157Z,49.05
2022-12-08T10:40:21.561Z,48.97
2022-12-08T10:42:47.953Z,49.31
2022-12-08T10:45:14.388Z,48.65
2022-12-08T10:47:44.791Z,48.89
2022-12-08T10:50:11.690Z,48.79
2022-12-08T10:52:38.030Z,48.53
2022-12-08T10:55:04.413Z,49.01
2022-12-08T10:57:30.810Z,48.28
2022-12-08T10:59:59.024Z,48.45
2022-12-08T11:02:25.575Z,48.54
2022-12-08T11:04:52.163Z,48.53
2022-12-08T11:07:19.403Z,48.85
2022-12-08T11:09:45.818Z,48.61
2022-12-08T11:12:12.302Z,48.34
2022-12-08T11:14:40.560Z,48.00
2022-12-08T11:17:07.068Z,47.79
2022-12-08T11:19:33.522Z,47.76
2022-12-08T11:22:00.003Z,47.71
2022-12-08T11:24:26.435Z,47.84
2022-12-08T11:26:52.898Z,47.43
2022-12-08T11:29:21.227Z,47.59
2022-12-08T11:31:51.194Z,47.57
2022-12-08T11:34:17.644Z,47.44
2022-12-08T11:36:45.944Z,47.28
2022-12-08T11:39:14.274Z,47.47
2022-12-08T11:41:40.769Z,47.37
2022-12-08T11:44:08.061Z,47.29
2022-12-08T11:46:34.562Z,47.24
2022-12-08T11:49:06.423Z,47.17
2022-12-08T11:51:34.323Z,47.15
2022-12-08T11:54:00.801Z,46.82
2022-12-08T11:56:27.241Z,46.74
2022-12-08T11:58:53.723Z,46.82
2022-12-08T12:01:20.200Z,47.01
2022-12-08T12:03:47.503Z,46.70
2022-12-08T12:06:37.756Z,46.55
2022-12-08T12:09:01.196Z,46.79
2022-12-08T12:11:28.484Z,46.72
2022-12-08T12:13:54.942Z,46.83
2022-12-08T12:16:22.352Z,46.35
2022-12-08T12:18:48.770Z,46.63
2022-12-08T12:21:15.332Z,46.42
2022-12-08T12:23:42.582Z,46.37
2022-12-08T12:26:09.832Z,46.51
2022-12-08T12:28:37.093Z,46.63
2022-12-08T12:31:04.393Z,46.51
2022-12-08T12:33:31.693Z,46.32
2022-12-08T12:35:58.095Z,46.53
2022-12-08T12:38:25.417Z,46.09
2022-12-08T12:40:52.624Z,46.05
2022-12-08T12:43:19.100Z,46.11
2022-12-08T12:45:46.337Z,46.25
2022-12-08T12:48:12.821Z,46.24
2022-12-08T12:50:40.086Z,46.30
2022-12-08T12:53:12.355Z,46.13
2022-12-08T12:55:40.308Z,46.30
2022-12-08T12:58:06.802Z,46.37
2022-12-08T13:00:34.073Z,46.21
2022-12-08T13:03:04.060Z,46.24
2022-12-08T13:05:31.432Z,46.20
2022-12-08T13:07:59.813Z,46.20
2022-12-08T13:10:27.079Z,46.07
2022-12-08T13:12:53.496Z,46.35
2022-12-08T13:15:20.750Z,45.92
2022-12-08T13:17:47.259Z,46.15
2022-12-08T13:20:14.517Z,46.20
2022-12-08T13:22:40.934Z,46.17
2022-12-08T13:25:07.403Z,45.96
2022-12-08T13:27:33.808Z,46.13
2022-12-08T13:30:01.096Z,45.95
2022-12-08T13:32:39.013Z,46.00
2022-12-08T13:35:16.203Z,45.71
2022-12-08T13:37:53.866Z,46.18
2022-12-08T13:40:21.486Z,45.79
2022-12-08T13:42:49.071Z,45.79
2022-12-08T13:45:25.559Z,45.59
2022-12-08T13:48:21.500Z,45.76
2022-12-08T13:52:37.068Z,46.01
2022-12-08T13:59:03.094Z,45.94
2022-12-08T14:01:29.578Z,45.88
2022-12-08T14:06:44.305Z,45.77
2022-12-08T14:09:11.743Z,46.05
2022-12-08T14:11:39.223Z,45.71
2022-12-08T14:14:06.579Z,45.90
2022-12-08T14:16:33.046Z,45.70
2022-12-08T14:18:59.575Z,45.84
2022-12-08T14:21:27.122Z,45.43
2022-12-08T14:23:57.340Z,45.57
2022-12-08T14:26:25.632Z,45.17
2022-12-08T14:28:52.997Z,45.78
2022-12-08T14:31:20.320Z,46.13
2022-12-08T14:33:49.365Z,46.25
2022-12-08T14:36:20.605Z,46.62
2022-12-08T14:38:47.880Z,46.95
2022-12-08T14:41:14.323Z,46.41
2022-12-08T14:43:40.807Z,47.84
2022-12-08T14:46:08.292Z,47.21
2022-12-08T14:48:34.846Z,47.00
2022-12-08T14:51:02.262Z,47.01
2022-12-08T14:53:28.788Z,47.44
2022-12-08T14:55:55.287Z,47.59
2022-12-08T14:58:21.795Z,47.29
2022-12-08T15:00:48.271Z,47.53
2022-12-08T15:03:15.664Z,47.76
2022-12-08T15:05:43.056Z,47.81
2022-12-08T15:08:09.559Z,47.42
2022-12-08T15:10:36.074Z,47.57
2022-12-08T15:13:03.493Z,48.19
2022-12-08T15:15:30.875Z,48.41
2022-12-08T15:17:57.332Z,47.75
2022-12-08T15:20:23.756Z,48.20
2022-12-08T15:22:51.193Z,49.29
2022-12-08T15:25:17.728Z,47.94
2022-12-08T15:27:50.578Z,48.35
2022-12-08T15:30:18.299Z,47.98
2022-12-08T15:32:45.684Z,48.19
2022-12-08T15:35:13.058Z,47.72
2022-12-08T15:37:40.376Z,48.24
2022-12-08T15:40:07.120Z,48.22
2022-12-08T15:42:34.716Z,48.34
2022-12-08T15:45:02.112Z,48.46
2022-12-08T15:47:28.555Z,48.51
2022-12-08T15:49:54.998Z,48.26
2022-12-08T15:52:22.440Z,48.39
2022-12-08T15:54:49.803Z,48.44
2022-12-08T15:57:21.568Z,48.68
2022-12-08T15:59:56.388Z,48.37
2022-12-08T16:02:25.053Z,48.51
2022-12-08T16:07:39.140Z,48.47
2022-12-08T16:10:07.250Z,48.16
2022-12-08T16:13:26.907Z,48.88
2022-12-08T16:18:09.688Z,48.88
2022-12-08T16:21:06.200Z,49.38
2022-12-08T16:23:41.713Z,48.92
2022-12-08T16:26:24.018Z,49.23
2022-12-08T16:28:56.288Z,49.25
2022-12-08T16:31:23.374Z,49.26
2022-12-08T16:33:51.910Z,49.35
2022-12-08T16:36:19.156Z,48.76
2022-12-08T16:38:45.631Z,49.63
2022-12-08T16:41:12.873Z,49.04
2022-12-08T16:43:39.313Z,49.14
2022-12-08T16:46:06.590Z,49.33
2022-12-08T16:48:33.926Z,49.68
2022-12-08T16:51:01.241Z,49.57
2022-12-08T16:53:28.560Z,49.25
2022-12-08T16:55:54.967Z,49.73
2022-12-08T16:58:23.379Z,49.69
2022-12-08T17:00:50.913Z,50.14
2022-12-08T17:03:17.352Z,49.10
2022-12-08T17:05:46.537Z,49.07
2022-12-08T17:08:14.177Z,49.88
2022-12-08T17:10:40.753Z,49.26
2022-12-08T17:13:07.195Z,49.17
2022-12-08T17:15:33.596Z,49.81
2022-12-08T17:18:00.158Z,49.65
2022-12-08T17:20:27.410Z,49.68
2022-12-08T17:22:57.397Z,48.47
2022-12-08T17:25:25.697Z,48.55
2022-12-08T17:27:52.158Z,48.42
2022-12-08T17:30:18.702Z,48.42
2022-12-08T17:32:48.669Z,48.29
2022-12-08T17:35:17.117Z,48.63
2022-12-08T17:37:43.564Z,48.14
2022-12-08T17:40:11.871Z,48.78
2022-12-08T17:42:38.378Z,48.17
2022-12-08T17:45:07.362Z,48.47
2022-12-08T17:47:35.898Z,48.68
2022-12-08T17:50:02.602Z,48.28
2022-12-08T17:52:29.247Z,47.99
2022-12-08T17:54:55.749Z,49.11
2022-12-08T17:57:22.190Z,48.15
2022-12-08T17:59:50.480Z,48.28
2022-12-08T18:02:19.728Z,48.70
2022-12-08T18:04:46.206Z,48.10
2022-12-08T18:07:12.654Z,48.24
2022-12-08T18:09:40.978Z,48.37
2022-12-08T18:12:07.425Z,48.17
2022-12-08T18:14:33.891Z,48.62
2022-12-08T18:17:02.299Z,48.51
2022-12-08T18:19:30.768Z,48.11
2022-12-08T18:21:59.056Z,48.51
2022-12-08T18:24:27.417Z,48.07
2022-12-08T18:26:53.813Z,48.44
2022-12-08T18:29:20.286Z,48.95
2022-12-08T18:31:47.624Z,48.38
2022-12-08T18:34:14.060Z,48.88
2022-12-08T18:36:40.586Z,48.39
2022-12-08T18:39:10.785Z,48.80
2022-12-08T18:41:39.474Z,48.80
2022-12-08T18:44:09.456Z,48.34
2022-12-08T18:46:35.910Z,48.96
2022-12-08T18:49:03.286Z,48.45
2022-12-08T18:51:29.759Z,49.04
2022-12-08T18:53:57.104Z,48.90
2022-12-08T18:56:23.568Z,48.70
2022-12-08T18:58:51.272Z,48.95
2022-12-08T19:01:17.738Z,48.88
2022-12-08T19:04:12.161Z,49.11
2022-12-08T19:06:35.345Z,49.04
2022-12-08T19:09:02.719Z,48.80
2022-12-08T19:11:31.003Z,48.71
2022-12-08T19:13:57.518Z,48.72
2022-12-08T19:16:24.060Z,48.68
2022-12-08T19:18:50.583Z,49.06
2022-12-08T19:21:18.894Z,48.62
2022-12-08T19:23:45.326Z,48.82
2022-12-08T19:26:13.622Z,48.92
2022-12-08T19:28:40.847Z,49.14
2022-12-08T19:31:08.260Z,49.10
2022-12-08T19:33:37.475Z,49.24
2022-12-08T19:36:03.922Z,50.93
2022-12-08T19:38:30.331Z,49.66
2022-12-08T19:40:57.538Z,50.42
2022-12-08T19:43:23.981Z,50.59
2022-12-08T19:45:50.439Z,50.73
2022-12-08T19:48:16.945Z,50.54
2022-12-08T19:50:43.314Z,50.86
2022-12-08T19:53:09.773Z,50.96
2022-12-08T19:55:36.122Z,50.96
2022-12-08T19:58:02.650Z,51.27
2022-12-08T20:00:29.245Z,50.75
2022-12-08T20:02:55.696Z,50.74
2022-12-08T20:05:22.105Z,51.21
2022-12-08T20:07:48.542Z,51.02
2022-12-08T20:10:15.912Z,50.89
2022-12-08T20:12:42.300Z,50.73
2022-12-08T20:15:08.732Z,50.95
2022-12-08T20:17:35.150Z,50.82
2022-12-08T20:20:06.577Z,50.20
2022-12-08T20:22:33.686Z,50.70
2022-12-08T20:25:01.162Z,49.90
2022-12-08T20:27:27.731Z,50.48
2022-12-08T20:29:54.202Z,50.02
2022-12-08T20:32:20.672Z,50.19
2022-12-08T20:34:47.064Z,50.55
2022-12-08T20:37:13.436Z,50.02
2022-12-08T20:39:39.794Z,51.40
2022-12-08T20:42:07.037Z,50.91
2022-12-08T20:44:33.526Z,50.40
2022-12-08T21:00:10.443Z,48.80
2022-12-08T21:02:40.488Z,48.70
2022-12-08T21:05:10.797Z,48.96
2022-12-08T21:07:37.413Z,48.91
2022-12-08T21:10:07.107Z,49.64
2022-12-08T21:12:33.955Z,49.17
2022-12-08T21:15:00.372Z,49.28
2022-12-08T21:17:26.912Z,49.80
2022-12-08T21:19:53.691Z,49.50
2022-12-08T21:22:20.183Z,49.17
2022-12-08T21:24:47.547Z,48.95
2022-12-08T21:27:15.867Z,49.31
2022-12-08T21:29:44.258Z,48.74
2022-12-08T21:32:11.663Z,48.28
2022-12-08T21:37:33.792Z,48.50
2022-12-08T21:40:00.740Z,48.23
2022-12-08T21:42:33.903Z,48.16
2022-12-08T21:45:02.805Z,48.33
2022-12-08T21:47:32.142Z,48.79
2022-12-08T21:52:43.013Z,49.22
2022-12-08T21:55:09.503Z,49.23
2022-12-08T21:57:36.814Z,49.36
2022-12-08T22:00:03.478Z,49.47
2022-12-08T22:02:33.232Z,49.49
2022-12-08T22:07:47.104Z,49.58
2022-12-08T22:10:13.748Z,49.30
2022-12-08T22:12:40.323Z,49.35
2022-12-08T22:15:07.787Z,50.39
2022-12-08T22:17:34.604Z,49.53
2022-12-08T22:22:56.753Z,49.45
2022-12-08T22:25:23.353Z,49.43
2022-12-08T22:27:49.759Z,50.01
2022-12-08T22:30:16.307Z,49.18
2022-12-08T22:32:42.860Z,49.33
2022-12-08T22:37:54.427Z,49.21
2022-12-08T22:40:21.191Z,49.87
2022-12-08T22:42:48.478Z,49.29
2022-12-08T22:45:15.170Z,49.86
2022-12-08T22:47:41.573Z,49.32
2022-12-08T22:53:02.104Z,49.08
2022-12-08T22:55:30.543Z,49.07
2022-12-08T22:57:56.969Z,49.25
2022-12-08T23:00:23.439Z,48.89
2022-12-08T23:02:50.815Z,49.41
2022-12-08T23:08:02.330Z,49.07
2022-12-08T23:10:32.249Z,49.11
2022-12-08T23:13:03.541Z,49.80
2022-12-08T23:15:32.431Z,49.58
2022-12-08T23:17:58.892Z,49.55
2022-12-08T23:23:09.531Z,49.05
2022-12-08T23:25:36.071Z,49.60
2022-12-08T23:28:02.455Z,49.05
2022-12-08T23:30:31.636Z,49.09
2022-12-08T23:32:58.932Z,49.29
2022-12-08T23:38:23.106Z,49.47
2022-12-08T23:40:52.310Z,49.46
2022-12-08T23:43:18.829Z,49.01
2022-12-08T23:45:45.406Z,49.33
2022-12-08T23:48:12.763Z,49.11
2022-12-08T23:53:23.324Z,49.23
2022-12-08T23:55:49.756Z,49.08
2022-12-08T23:58:17.048Z,49.05
